sensor_id;sensor_type;location;lat;lon;timestamp;pressure;altitude;pressure_sealevel;temperature;humidity
22653;BME280;11493;43.344;26.226;2024-03-22T00:02:15;99618.63;;;3.09;100.00
22653;BME280;11493;43.344;26.226;2024-03-22T00:04:42;99617.94;;;2.92;100.00
22653;BME280;11493;43.344;26.226;2024-03-22T00:07:08;99627.19;;;2.91;100.00
22653;BME280;11493;43.344;26.226;2024-03-22T00:09:34;99612.09;;;2.78;100.00
22653;BME280;11493;43.344;26.226;2024-03-22T00:12:00;99607.69;;;2.72;100.00
22653;BME280;11493;43.344;26.226;2024-03-22T00:14:26;99611.81;;;2.75;100.00
22653;BME280;11493;43.344;26.226;2024-03-22T00:16:54;99614.81;;;2.78;100.00
22653;BME280;11493;43.344;26.226;2024-03-22T00:19:21;99609.97;;;2.80;100.00
22653;BME280;11493;43.344;26.226;2024-03-22T00:21:46;99612.38;;;2.77;100.00
22653;BME280;11493;43.344;26.226;2024-03-22T00:24:13;99611.25;;;2.73;100.00
22653;BME280;11493;43.344;26.226;2024-03-22T00:26:40;99613.97;;;2.73;100.00
22653;BME280;11493;43.344;26.226;2024-03-22T00:29:06;99625.13;;;2.76;100.00
22653;BME280;11493;43.344;26.226;2024-03-22T00:31:34;99615.59;;;2.74;100.00
22653;BME280;11493;43.344;26.226;2024-03-22T00:34:00;99633.03;;;2.78;100.00
22653;BME280;11493;43.344;26.226;2024-03-22T00:36:26;99630.38;;;2.83;100.00
22653;BME280;11493;43.344;26.226;2024-03-22T00:38:52;99645.66;;;2.89;100.00
22653;BME280;11493;43.344;26.226;2024-03-22T00:41:19;99629.03;;;2.85;100.00
22653;BME280;11493;43.344;26.226;2024-03-22T00:43:45;99645.13;;;2.92;100.00
22653;BME280;11493;43.344;26.226;2024-03-22T00:46:11;99638.31;;;2.89;100.00
22653;BME280;11493;43.344;26.226;2024-03-22T00:48:37;99635.91;;;2.93;100.00
22653;BME280;11493;43.344;26.226;2024-03-22T00:51:04;99648.44;;;2.99;100.00
22653;BME280;11493;43.344;26.226;2024-03-22T00:53:30;99649.31;;;3.05;100.00
22653;BME280;11493;43.344;26.226;2024-03-22T00:55:56;99642.47;;;2.97;100.00
22653;BME280;11493;43.344;26.226;2024-03-22T00:58:26;99656.38;;;3.06;100.00
22653;BME280;11493;43.344;26.226;2024-03-22T01:00:54;99643.56;;;3.01;100.00
22653;BME280;11493;43.344;26.226;2024-03-22T01:03:21;99631.28;;;2.93;100.00
22653;BME280;11493;43.344;26.226;2024-03-22T01:05:47;99649.09;;;3.11;100.00
22653;BME280;11493;43.344;26.226;2024-03-22T01:08:13;99638.00;;;3.18;100.00
22653;BME280;11493;43.344;26.226;2024-03-22T01:10:39;99643.69;;;3.16;100.00
22653;BME280;11493;43.344;26.226;2024-03-22T01:13:07;99649.03;;;3.06;100.00
22653;BME280;11493;43.344;26.226;2024-03-22T01:15:34;99635.03;;;2.87;100.00
22653;BME280;11493;43.344;26.226;2024-03-22T01:18:01;99650.63;;;3.02;100.00
22653;BME280;11493;43.344;26.226;2024-03-22T01:20:27;99638.50;;;2.83;100.00
22653;BME280;11493;43.344;26.226;2024-03-22T01:22:53;99644.47;;;2.80;100.00
22653;BME280;11493;43.344;26.226;2024-03-22T01:25:20;99650.72;;;2.80;100.00
22653;BME280;11493;43.344;26.226;2024-03-22T01:27:46;99639.06;;;2.58;100.00
22653;BME280;11493;43.344;26.226;2024-03-22T01:30:12;99646.34;;;2.52;100.00
22653;BME280;11493;43.344;26.226;2024-03-22T01:32:38;99636.47;;;2.46;100.00
22653;BME280;11493;43.344;26.226;2024-03-22T01:35:04;99644.06;;;2.44;100.00
22653;BME280;11493;43.344;26.226;2024-03-22T01:37:34;99633.16;;;2.39;100.00
22653;BME280;11493;43.344;26.226;2024-03-22T01:40:00;99609.50;;;2.13;100.00
22653;BME280;11493;43.344;26.226;2024-03-22T01:42:27;99614.09;;;2.12;100.00
22653;BME280;11493;43.344;26.226;2024-03-22T01:44:57;99621.19;;;2.13;100.00
22653;BME280;11493;43.344;26.226;2024-03-22T01:47:24;99636.25;;;2.26;100.00
22653;BME280;11493;43.344;26.226;2024-03-22T01:49:54;99639.47;;;2.23;100.00
22653;BME280;11493;43.344;26.226;2024-03-22T01:52:21;99637.31;;;2.25;100.00
22653;BME280;11493;43.344;26.226;2024-03-22T01:54:51;99637.88;;;2.27;100.00
22653;BME280;11493;43.344;26.226;2024-03-22T01:57:21;99640.66;;;2.32;100.00
22653;BME280;11493;43.344;26.226;2024-03-22T01:59:50;99650.06;;;2.46;100.00
22653;BME280;11493;43.344;26.226;2024-03-22T02:02:18;99644.44;;;2.53;100.00
22653;BME280;11493;43.344;26.226;2024-03-22T02:04:45;99630.84;;;2.53;100.00
22653;BME280;11493;43.344;26.226;2024-03-22T02:07:11;99634.09;;;2.50;100.00
22653;BME280;11493;43.344;26.226;2024-03-22T02:09:38;99638.38;;;2.46;100.00
22653;BME280;11493;43.344;26.226;2024-03-22T02:12:05;99642.28;;;2.33;100.00
22653;BME280;11493;43.344;26.226;2024-03-22T02:14:33;99633.53;;;2.26;100.00
22653;BME280;11493;43.344;26.226;2024-03-22T02:16:59;99630.81;;;2.26;100.00
22653;BME280;11493;43.344;26.226;2024-03-22T02:19:26;99635.72;;;2.29;100.00
22653;BME280;11493;43.344;26.226;2024-03-22T02:21:54;99635.66;;;2.24;100.00
22653;BME280;11493;43.344;26.226;2024-03-22T02:24:24;99635.13;;;2.22;100.00
22653;BME280;11493;43.344;26.226;2024-03-22T02:26:53;99631.31;;;2.23;100.00
22653;BME280;11493;43.344;26.226;2024-03-22T02:29:26;99646.59;;;2.29;100.00
22653;BME280;11493;43.344;26.226;2024-03-22T02:31:56;99639.78;;;2.26;100.00
22653;BME280;11493;43.344;26.226;2024-03-22T02:34:24;99635.47;;;2.30;100.00
22653;BME280;11493;43.344;26.226;2024-03-22T02:36:51;99641.16;;;2.29;100.00
22653;BME280;11493;43.344;26.226;2024-03-22T02:39:17;99621.56;;;2.22;100.00
22653;BME280;11493;43.344;26.226;2024-03-22T02:41:44;99623.97;;;2.18;100.00
22653;BME280;11493;43.344;26.226;2024-03-22T02:44:10;99623.13;;;2.18;100.00
22653;BME280;11493;43.344;26.226;2024-03-22T02:46:36;99634.13;;;2.06;100.00
22653;BME280;11493;43.344;26.226;2024-03-22T02:49:02;99635.50;;;2.09;100.00
22653;BME280;11493;43.344;26.226;2024-03-22T02:51:28;99638.59;;;1.95;100.00
22653;BME280;11493;43.344;26.226;2024-03-22T02:53:55;99632.53;;;1.88;100.00
22653;BME280;11493;43.344;26.226;2024-03-22T02:56:21;99633.59;;;1.87;100.00
22653;BME280;11493;43.344;26.226;2024-03-22T02:58:49;99636.72;;;1.79;100.00
22653;BME280;11493;43.344;26.226;2024-03-22T03:01:19;99619.16;;;1.65;100.00
22653;BME280;11493;43.344;26.226;2024-03-22T03:03:45;99641.03;;;1.58;100.00
22653;BME280;11493;43.344;26.226;2024-03-22T03:06:11;99614.03;;;1.47;100.00
22653;BME280;11493;43.344;26.226;2024-03-22T03:08:39;99636.84;;;1.51;100.00
22653;BME280;11493;43.344;26.226;2024-03-22T03:11:05;99643.88;;;1.47;100.00
22653;BME280;11493;43.344;26.226;2024-03-22T03:13:32;99642.06;;;1.36;100.00
22653;BME280;11493;43.344;26.226;2024-03-22T03:15:59;99635.91;;;1.23;100.00
22653;BME280;11493;43.344;26.226;2024-03-22T03:18:26;99642.22;;;1.29;100.00
22653;BME280;11493;43.344;26.226;2024-03-22T03:20:52;99654.88;;;1.23;100.00
22653;BME280;11493;43.344;26.226;2024-03-22T03:23:18;99634.41;;;1.16;100.00
22653;BME280;11493;43.344;26.226;2024-03-22T03:25:44;99646.66;;;1.18;100.00
22653;BME280;11493;43.344;26.226;2024-03-22T03:28:13;99657.25;;;1.20;100.00
22653;BME280;11493;43.344;26.226;2024-03-22T03:30:40;99642.78;;;1.14;100.00
22653;BME280;11493;43.344;26.226;2024-03-22T03:33:06;99653.72;;;1.19;100.00
22653;BME280;11493;43.344;26.226;2024-03-22T03:35:33;99648.78;;;1.16;100.00
22653;BME280;11493;43.344;26.226;2024-03-22T03:37:59;99671.22;;;1.28;100.00
22653;BME280;11493;43.344;26.226;2024-03-22T03:40:25;99665.72;;;1.23;100.00
22653;BME280;11493;43.344;26.226;2024-03-22T03:42:52;99661.03;;;1.19;100.00
22653;BME280;11493;43.344;26.226;2024-03-22T03:45:19;99664.13;;;1.11;100.00
22653;BME280;11493;43.344;26.226;2024-03-22T03:47:45;99656.84;;;1.11;100.00
22653;BME280;11493;43.344;26.226;2024-03-22T03:50:11;99661.09;;;1.07;100.00
22653;BME280;11493;43.344;26.226;2024-03-22T03:52:38;99660.44;;;1.00;100.00
22653;BME280;11493;43.344;26.226;2024-03-22T03:55:04;99657.97;;;0.98;100.00
22653;BME280;11493;43.344;26.226;2024-03-22T03:57:30;99653.84;;;0.96;100.00
22653;BME280;11493;43.344;26.226;2024-03-22T03:59:56;99665.50;;;0.96;100.00
22653;BME280;11493;43.344;26.226;2024-03-22T04:02:22;99642.84;;;0.86;100.00
22653;BME280;11493;43.344;26.226;2024-03-22T04:04:52;99652.84;;;0.85;100.00
22653;BME280;11493;43.344;26.226;2024-03-22T04:07:22;99650.38;;;0.84;100.00
22653;BME280;11493;43.344;26.226;2024-03-22T04:09:48;99650.63;;;0.82;100.00
22653;BME280;11493;43.344;26.226;2024-03-22T04:12:15;99632.41;;;0.78;100.00
22653;BME280;11493;43.344;26.226;2024-03-22T04:14:41;99664.28;;;1.04;100.00
22653;BME280;11493;43.344;26.226;2024-03-22T04:17:07;99663.53;;;0.92;100.00
22653;BME280;11493;43.344;26.226;2024-03-22T04:19:33;99680.28;;;0.89;100.00
22653;BME280;11493;43.344;26.226;2024-03-22T04:21:59;99678.44;;;0.78;100.00
22653;BME280;11493;43.344;26.226;2024-03-22T04:24:25;99675.97;;;0.76;100.00
22653;BME280;11493;43.344;26.226;2024-03-22T04:26:51;99681.72;;;0.80;100.00
22653;BME280;11493;43.344;26.226;2024-03-22T04:29:18;99679.84;;;0.80;100.00
22653;BME280;11493;43.344;26.226;2024-03-22T04:31:50;99689.84;;;0.80;100.00
22653;BME280;11493;43.344;26.226;2024-03-22T04:34:16;99687.16;;;0.80;100.00
22653;BME280;11493;43.344;26.226;2024-03-22T04:36:42;99676.47;;;0.73;100.00
22653;BME280;11493;43.344;26.226;2024-03-22T04:39:12;99690.44;;;0.82;100.00
22653;BME280;11493;43.344;26.226;2024-03-22T04:41:39;99697.16;;;0.79;100.00
22653;BME280;11493;43.344;26.226;2024-03-22T04:44:06;99701.25;;;0.82;100.00
22653;BME280;11493;43.344;26.226;2024-03-22T04:46:32;99703.50;;;0.85;100.00
22653;BME280;11493;43.344;26.226;2024-03-22T04:48:58;99703.34;;;0.91;100.00
22653;BME280;11493;43.344;26.226;2024-03-22T04:51:25;99704.25;;;0.97;100.00
22653;BME280;11493;43.344;26.226;2024-03-22T04:53:51;99704.34;;;1.02;100.00
22653;BME280;11493;43.344;26.226;2024-03-22T04:56:17;99709.47;;;1.15;100.00
22653;BME280;11493;43.344;26.226;2024-03-22T04:58:43;99723.59;;;1.17;100.00
22653;BME280;11493;43.344;26.226;2024-03-22T05:01:09;99709.00;;;1.18;100.00
22653;BME280;11493;43.344;26.226;2024-03-22T05:03:35;99722.72;;;1.28;100.00
22653;BME280;11493;43.344;26.226;2024-03-22T05:06:05;99724.06;;;1.43;100.00
22653;BME280;11493;43.344;26.226;2024-03-22T05:08:32;99723.03;;;1.49;100.00
22653;BME280;11493;43.344;26.226;2024-03-22T05:10:58;99726.25;;;1.62;100.00
22653;BME280;11493;43.344;26.226;2024-03-22T05:13:24;99725.53;;;1.67;100.00
22653;BME280;11493;43.344;26.226;2024-03-22T05:15:50;99734.31;;;1.74;100.00
22653;BME280;11493;43.344;26.226;2024-03-22T05:18:16;99728.97;;;1.79;100.00
22653;BME280;11493;43.344;26.226;2024-03-22T05:20:42;99729.94;;;1.90;100.00
22653;BME280;11493;43.344;26.226;2024-03-22T05:23:08;99720.41;;;1.87;100.00
22653;BME280;11493;43.344;26.226;2024-03-22T05:25:34;99714.97;;;1.87;100.00
22653;BME280;11493;43.344;26.226;2024-03-22T05:28:00;99727.63;;;1.98;100.00
22653;BME280;11493;43.344;26.226;2024-03-22T05:30:26;99724.50;;;2.07;100.00
22653;BME280;11493;43.344;26.226;2024-03-22T05:32:52;99720.88;;;2.18;100.00
22653;BME280;11493;43.344;26.226;2024-03-22T05:35:29;99727.44;;;2.22;100.00
22653;BME280;11493;43.344;26.226;2024-03-22T05:38:15;99728.94;;;2.35;100.00
22653;BME280;11493;43.344;26.226;2024-03-22T05:40:42;99717.69;;;2.26;100.00
22653;BME280;11493;43.344;26.226;2024-03-22T05:43:10;99747.09;;;2.51;100.00
22653;BME280;11493;43.344;26.226;2024-03-22T05:45:36;99736.16;;;2.68;100.00
22653;BME280;11493;43.344;26.226;2024-03-22T05:48:05;99738.44;;;2.76;100.00
22653;BME280;11493;43.344;26.226;2024-03-22T05:50:31;99731.16;;;2.81;100.00
22653;BME280;11493;43.344;26.226;2024-03-22T05:52:57;99745.69;;;2.92;100.00
22653;BME280;11493;43.344;26.226;2024-03-22T05:55:23;99736.09;;;2.84;100.00
22653;BME280;11493;43.344;26.226;2024-03-22T05:57:53;99757.97;;;3.00;100.00
22653;BME280;11493;43.344;26.226;2024-03-22T06:00:22;99756.19;;;3.10;100.00
22653;BME280;11493;43.344;26.226;2024-03-22T06:02:48;99757.44;;;3.24;100.00
22653;BME280;11493;43.344;26.226;2024-03-22T06:05:14;99758.94;;;3.37;100.00
22653;BME280;11493;43.344;26.226;2024-03-22T06:07:40;99774.69;;;3.62;100.00
22653;BME280;11493;43.344;26.226;2024-03-22T06:10:09;99779.75;;;3.85;100.00
22653;BME280;11493;43.344;26.226;2024-03-22T06:12:36;99782.41;;;4.54;100.00
22653;BME280;11493;43.344;26.226;2024-03-22T06:15:03;99782.91;;;4.46;100.00
22653;BME280;11493;43.344;26.226;2024-03-22T06:17:33;99780.72;;;4.43;100.00
22653;BME280;11493;43.344;26.226;2024-03-22T06:19:59;99780.72;;;4.48;100.00
22653;BME280;11493;43.344;26.226;2024-03-22T06:22:26;99782.47;;;4.65;100.00
22653;BME280;11493;43.344;26.226;2024-03-22T06:24:56;99788.44;;;4.61;100.00
22653;BME280;11493;43.344;26.226;2024-03-22T06:27:23;99783.56;;;4.69;100.00
22653;BME280;11493;43.344;26.226;2024-03-22T06:29:49;99790.44;;;4.81;100.00
22653;BME280;11493;43.344;26.226;2024-03-22T06:32:21;99768.66;;;4.86;100.00
22653;BME280;11493;43.344;26.226;2024-03-22T06:34:50;99783.75;;;5.14;100.00
22653;BME280;11493;43.344;26.226;2024-03-22T06:37:16;99781.84;;;5.25;100.00
22653;BME280;11493;43.344;26.226;2024-03-22T06:39:42;99780.81;;;5.41;100.00
22653;BME280;11493;43.344;26.226;2024-03-22T06:42:08;99777.28;;;5.51;100.00
22653;BME280;11493;43.344;26.226;2024-03-22T06:44:34;99784.13;;;5.74;100.00
22653;BME280;11493;43.344;26.226;2024-03-22T06:47:00;99794.28;;;5.93;100.00
22653;BME280;11493;43.344;26.226;2024-03-22T06:49:26;99787.44;;;6.11;100.00
22653;BME280;11493;43.344;26.226;2024-03-22T06:51:52;99796.44;;;6.22;100.00
22653;BME280;11493;43.344;26.226;2024-03-22T06:54:18;99795.88;;;6.30;100.00
22653;BME280;11493;43.344;26.226;2024-03-22T06:56:44;99798.06;;;6.38;100.00
22653;BME280;11493;43.344;26.226;2024-03-22T06:59:13;99800.75;;;6.58;99.34
22653;BME280;11493;43.344;26.226;2024-03-22T07:01:40;99791.19;;;6.61;97.45
22653;BME280;11493;43.344;26.226;2024-03-22T07:04:09;99780.53;;;6.59;96.90
22653;BME280;11493;43.344;26.226;2024-03-22T07:06:35;99796.03;;;6.84;97.03
22653;BME280;11493;43.344;26.226;2024-03-22T07:09:02;99800.31;;;7.06;96.58
22653;BME280;11493;43.344;26.226;2024-03-22T07:11:28;99788.50;;;7.15;95.40
22653;BME280;11493;43.344;26.226;2024-03-22T07:13:54;99801.34;;;7.20;94.42
22653;BME280;11493;43.344;26.226;2024-03-22T07:16:20;99805.97;;;7.30;94.15
22653;BME280;11493;43.344;26.226;2024-03-22T07:18:46;99798.53;;;7.35;92.80
22653;BME280;11493;43.344;26.226;2024-03-22T07:21:14;99784.88;;;7.30;91.99
22653;BME280;11493;43.344;26.226;2024-03-22T07:23:45;99798.44;;;7.50;91.67
22653;BME280;11493;43.344;26.226;2024-03-22T07:26:12;99787.19;;;7.52;90.58
22653;BME280;11493;43.344;26.226;2024-03-22T07:28:38;99803.44;;;7.82;89.36
22653;BME280;11493;43.344;26.226;2024-03-22T07:31:04;99804.41;;;7.97;88.94
22653;BME280;11493;43.344;26.226;2024-03-22T07:33:31;99819.94;;;8.11;87.17
22653;BME280;11493;43.344;26.226;2024-03-22T07:36:04;99819.78;;;8.27;86.42
22653;BME280;11493;43.344;26.226;2024-03-22T07:38:30;99813.91;;;8.43;85.40
22653;BME280;11493;43.344;26.226;2024-03-22T07:40:57;99805.91;;;8.47;84.88
22653;BME280;11493;43.344;26.226;2024-03-22T07:43:23;99813.34;;;8.70;83.77
22653;BME280;11493;43.344;26.226;2024-03-22T07:45:51;99822.19;;;8.91;82.90
22653;BME280;11493;43.344;26.226;2024-03-22T07:48:20;99813.97;;;9.10;83.25
22653;BME280;11493;43.344;26.226;2024-03-22T07:50:57;99808.41;;;9.39;82.22
22653;BME280;11493;43.344;26.226;2024-03-22T07:53:32;99816.28;;;9.45;81.42
22653;BME280;11493;43.344;26.226;2024-03-22T07:55:58;99814.66;;;9.44;80.68
22653;BME280;11493;43.344;26.226;2024-03-22T07:58:26;99809.75;;;9.60;79.05
22653;BME280;11493;43.344;26.226;2024-03-22T08:00:52;99824.13;;;9.89;78.17
22653;BME280;11493;43.344;26.226;2024-03-22T08:03:18;99820.28;;;9.91;77.07
22653;BME280;11493;43.344;26.226;2024-03-22T08:05:44;99823.53;;;9.93;76.14
22653;BME280;11493;43.344;26.226;2024-03-22T08:08:11;99811.06;;;9.81;77.23
22653;BME280;11493;43.344;26.226;2024-03-22T08:10:38;99800.91;;;9.44;79.63
22653;BME280;11493;43.344;26.226;2024-03-22T08:13:05;99811.06;;;9.81;78.64
22653;BME280;11493;43.344;26.226;2024-03-22T08:15:31;99817.75;;;9.75;79.06
22653;BME280;11493;43.344;26.226;2024-03-22T08:17:57;99818.06;;;9.55;77.98
22653;BME280;11493;43.344;26.226;2024-03-22T08:20:24;99825.47;;;9.36;79.03
22653;BME280;11493;43.344;26.226;2024-03-22T08:22:50;99814.97;;;9.19;79.35
22653;BME280;11493;43.344;26.226;2024-03-22T08:25:17;99816.03;;;8.99;79.36
22653;BME280;11493;43.344;26.226;2024-03-22T08:27:46;99820.13;;;8.78;81.33
22653;BME280;11493;43.344;26.226;2024-03-22T08:30:13;99795.09;;;8.84;81.18
22653;BME280;11493;43.344;26.226;2024-03-22T08:32:40;99820.34;;;9.29;80.06
22653;BME280;11493;43.344;26.226;2024-03-22T08:35:06;99806.31;;;9.31;78.87
22653;BME280;11493;43.344;26.226;2024-03-22T08:37:34;99817.81;;;9.70;79.17
22653;BME280;11493;43.344;26.226;2024-03-22T08:40:00;99824.22;;;9.84;75.94
22653;BME280;11493;43.344;26.226;2024-03-22T08:42:26;99824.72;;;9.68;75.80
22653;BME280;11493;43.344;26.226;2024-03-22T08:44:52;99821.91;;;9.73;76.32
22653;BME280;11493;43.344;26.226;2024-03-22T08:47:19;99833.56;;;9.83;76.53
22653;BME280;11493;43.344;26.226;2024-03-22T08:49:54;99826.81;;;9.95;75.03
22653;BME280;11493;43.344;26.226;2024-03-22T08:52:23;99835.66;;;9.73;73.69
22653;BME280;11493;43.344;26.226;2024-03-22T08:54:53;99831.41;;;9.80;73.68
22653;BME280;11493;43.344;26.226;2024-03-22T08:57:20;99816.41;;;9.92;73.56
22653;BME280;11493;43.344;26.226;2024-03-22T08:59:46;99805.78;;;10.04;71.93
22653;BME280;11493;43.344;26.226;2024-03-22T09:02:13;99814.91;;;10.18;73.15
22653;BME280;11493;43.344;26.226;2024-03-22T09:04:41;99817.44;;;10.14;71.64
22653;BME280;11493;43.344;26.226;2024-03-22T09:07:07;99818.72;;;10.22;69.66
22653;BME280;11493;43.344;26.226;2024-03-22T09:09:34;99819.59;;;9.80;72.15
22653;BME280;11493;43.344;26.226;2024-03-22T09:12:01;99823.25;;;9.75;71.49
22653;BME280;11493;43.344;26.226;2024-03-22T09:14:28;99815.75;;;9.81;71.60
22653;BME280;11493;43.344;26.226;2024-03-22T09:16:59;99824.34;;;10.12;70.45
22653;BME280;11493;43.344;26.226;2024-03-22T09:19:26;99812.97;;;10.18;69.94
22653;BME280;11493;43.344;26.226;2024-03-22T09:21:52;99804.56;;;10.29;69.46
22653;BME280;11493;43.344;26.226;2024-03-22T09:24:18;99804.34;;;10.25;69.52
22653;BME280;11493;43.344;26.226;2024-03-22T09:26:48;99799.50;;;10.36;69.82
22653;BME280;11493;43.344;26.226;2024-03-22T09:29:18;99805.81;;;10.50;69.71
22653;BME280;11493;43.344;26.226;2024-03-22T09:31:47;99788.53;;;10.63;69.39
22653;BME280;11493;43.344;26.226;2024-03-22T09:34:16;99804.66;;;10.83;69.17
22653;BME280;11493;43.344;26.226;2024-03-22T09:36:43;99794.03;;;10.77;68.52
22653;BME280;11493;43.344;26.226;2024-03-22T09:39:09;99805.88;;;10.91;69.42
22653;BME280;11493;43.344;26.226;2024-03-22T09:41:42;99802.59;;;10.75;68.39
22653;BME280;11493;43.344;26.226;2024-03-22T09:44:13;99768.13;;;10.50;68.61
22653;BME280;11493;43.344;26.226;2024-03-22T09:46:43;99786.31;;;10.79;69.50
22653;BME280;11493;43.344;26.226;2024-03-22T09:49:09;99776.69;;;10.63;70.29
22653;BME280;11493;43.344;26.226;2024-03-22T09:51:37;99794.53;;;10.51;69.40
22653;BME280;11493;43.344;26.226;2024-03-22T09:54:05;99774.28;;;10.75;68.88
22653;BME280;11493;43.344;26.226;2024-03-22T09:56:33;99792.94;;;11.05;68.19
22653;BME280;11493;43.344;26.226;2024-03-22T09:59:03;99780.69;;;10.84;67.44
22653;BME280;11493;43.344;26.226;2024-03-22T10:01:34;99776.94;;;10.80;68.13
22653;BME280;11493;43.344;26.226;2024-03-22T10:04:00;99766.09;;;10.70;68.84
22653;BME280;11493;43.344;26.226;2024-03-22T10:06:26;99761.00;;;10.63;68.00
22653;BME280;11493;43.344;26.226;2024-03-22T10:08:52;99779.16;;;10.78;66.96
22653;BME280;11493;43.344;26.226;2024-03-22T10:11:19;99766.00;;;11.02;66.16
22653;BME280;11493;43.344;26.226;2024-03-22T10:13:46;99775.06;;;11.16;66.80
22653;BME280;11493;43.344;26.226;2024-03-22T10:16:17;99773.81;;;11.36;66.20
22653;BME280;11493;43.344;26.226;2024-03-22T10:18:42;99772.56;;;11.42;66.65
22653;BME280;11493;43.344;26.226;2024-03-22T10:21:08;99750.72;;;11.46;67.12
22653;BME280;11493;43.344;26.226;2024-03-22T10:23:34;99754.72;;;11.76;64.92
22653;BME280;11493;43.344;26.226;2024-03-22T10:26:04;99748.53;;;11.93;63.75
22653;BME280;11493;43.344;26.226;2024-03-22T10:28:31;99758.06;;;12.09;62.31
22653;BME280;11493;43.344;26.226;2024-03-22T10:30:57;99751.66;;;12.22;61.17
22653;BME280;11493;43.344;26.226;2024-03-22T10:33:23;99725.69;;;12.23;61.53
22653;BME280;11493;43.344;26.226;2024-03-22T10:35:53;99744.06;;;12.28;58.43
22653;BME280;11493;43.344;26.226;2024-03-22T10:38:20;99739.66;;;12.27;58.29
22653;BME280;11493;43.344;26.226;2024-03-22T10:40:46;99733.91;;;12.14;58.50
22653;BME280;11493;43.344;26.226;2024-03-22T10:43:16;99735.59;;;12.02;58.61
22653;BME280;11493;43.344;26.226;2024-03-22T10:45:42;99734.34;;;12.08;58.50
22653;BME280;11493;43.344;26.226;2024-03-22T10:48:12;99718.81;;;12.12;58.57
22653;BME280;11493;43.344;26.226;2024-03-22T10:50:42;99717.53;;;12.18;59.32
22653;BME280;11493;43.344;26.226;2024-03-22T10:53:13;99717.38;;;12.45;59.35
22653;BME280;11493;43.344;26.226;2024-03-22T10:55:43;99718.97;;;12.95;58.22
22653;BME280;11493;43.344;26.226;2024-03-22T10:58:24;99712.38;;;12.65;56.67
22653;BME280;11493;43.344;26.226;2024-03-22T11:00:54;99700.09;;;12.79;57.77
22653;BME280;11493;43.344;26.226;2024-03-22T11:03:22;99699.56;;;13.17;55.61
22653;BME280;11493;43.344;26.226;2024-03-22T11:05:55;99702.59;;;12.98;54.87
22653;BME280;11493;43.344;26.226;2024-03-22T11:08:29;99689.81;;;12.63;55.54
22653;BME280;11493;43.344;26.226;2024-03-22T11:11:10;99684.78;;;12.65;55.79
22653;BME280;11493;43.344;26.226;2024-03-22T11:13:37;99691.44;;;12.64;55.15
22653;BME280;11493;43.344;26.226;2024-03-22T11:16:09;99689.13;;;12.48;55.93
22653;BME280;11493;43.344;26.226;2024-03-22T11:18:36;99690.19;;;12.30;56.13
22653;BME280;11493;43.344;26.226;2024-03-22T11:21:02;99674.75;;;12.29;56.51
22653;BME280;11493;43.344;26.226;2024-03-22T11:23:32;99659.88;;;12.39;55.55
22653;BME280;11493;43.344;26.226;2024-03-22T11:26:00;99678.63;;;12.68;55.03
22653;BME280;11493;43.344;26.226;2024-03-22T11:28:26;99654.03;;;12.40;54.39
22653;BME280;11493;43.344;26.226;2024-03-22T11:30:52;99669.19;;;12.60;54.15
22653;BME280;11493;43.344;26.226;2024-03-22T11:33:18;99674.19;;;12.49;53.74
22653;BME280;11493;43.344;26.226;2024-03-22T11:35:47;99662.38;;;12.58;54.11
22653;BME280;11493;43.344;26.226;2024-03-22T11:38:15;99660.78;;;12.74;53.59
22653;BME280;11493;43.344;26.226;2024-03-22T11:40:43;99659.19;;;12.90;53.33
22653;BME280;11493;43.344;26.226;2024-03-22T11:43:10;99654.16;;;13.01;52.96
22653;BME280;11493;43.344;26.226;2024-03-22T11:45:37;99651.69;;;12.82;53.05
22653;BME280;11493;43.344;26.226;2024-03-22T11:48:04;99649.25;;;12.72;53.72
22653;BME280;11493;43.344;26.226;2024-03-22T11:50:31;99647.47;;;12.84;54.19
22653;BME280;11493;43.344;26.226;2024-03-22T11:52:57;99649.91;;;12.86;54.08
22653;BME280;11493;43.344;26.226;2024-03-22T11:55:26;99645.56;;;13.11;53.66
22653;BME280;11493;43.344;26.226;2024-03-22T11:57:53;99631.91;;;13.06;53.73
22653;BME280;11493;43.344;26.226;2024-03-22T12:00:20;99639.53;;;13.00;54.44
22653;BME280;11493;43.344;26.226;2024-03-22T12:02:48;99643.09;;;12.92;54.79
22653;BME280;11493;43.344;26.226;2024-03-22T12:05:14;99638.22;;;12.89;54.21
22653;BME280;11493;43.344;26.226;2024-03-22T12:07:40;99641.59;;;12.69;53.21
22653;BME280;11493;43.344;26.226;2024-03-22T12:10:07;99640.81;;;12.77;53.38
22653;BME280;11493;43.344;26.226;2024-03-22T12:12:33;99630.44;;;12.91;53.73
22653;BME280;11493;43.344;26.226;2024-03-22T12:14:59;99629.34;;;13.18;54.54
22653;BME280;11493;43.344;26.226;2024-03-22T12:17:25;99623.19;;;13.30;52.11
22653;BME280;11493;43.344;26.226;2024-03-22T12:19:51;99617.81;;;13.25;51.69
22653;BME280;11493;43.344;26.226;2024-03-22T12:22:18;99631.31;;;13.35;51.45
22653;BME280;11493;43.344;26.226;2024-03-22T12:24:47;99622.81;;;13.40;51.24
22653;BME280;11493;43.344;26.226;2024-03-22T12:27:13;99614.72;;;13.35;51.41
22653;BME280;11493;43.344;26.226;2024-03-22T12:29:46;99613.88;;;13.43;51.46
22653;BME280;11493;43.344;26.226;2024-03-22T12:32:12;99599.72;;;13.44;51.97
22653;BME280;11493;43.344;26.226;2024-03-22T12:34:38;99603.94;;;13.59;51.89
22653;BME280;11493;43.344;26.226;2024-03-22T12:37:06;99611.28;;;13.38;51.67
22653;BME280;11493;43.344;26.226;2024-03-22T12:39:32;99601.22;;;13.33;51.86
22653;BME280;11493;43.344;26.226;2024-03-22T12:41:58;99607.06;;;13.14;51.94
22653;BME280;11493;43.344;26.226;2024-03-22T12:44:25;99604.28;;;12.89;52.77
22653;BME280;11493;43.344;26.226;2024-03-22T12:46:52;99606.66;;;12.64;52.34
22653;BME280;11493;43.344;26.226;2024-03-22T12:49:20;99594.66;;;12.69;51.54
22653;BME280;11493;43.344;26.226;2024-03-22T12:51:47;99600.53;;;12.93;51.22
22653;BME280;11493;43.344;26.226;2024-03-22T12:54:13;99586.75;;;13.02;51.51